Time;durP1;ratioP1;P1;durP2;ratioP2;P2;SDS_P1;SDS_P2;PMS_P1;PMS_P2;Temp;Humidity;BMP_temperature;BMP_pressure;BME280_temperature;BME280_humidity;BME280_pressure;Samples;Min_cycle;Max_cycle;Signal;HPM_P1;HPM_P2
2022/05/16 00:00:18;;;;;;;17.48;9.07;;;;;;;;;;5040504;28;20053;-77
2022/05/16 00:03:05;;;;;;;16.17;7.55;;;;;;;;;;5040097;28;20049;-77
2022/05/16 00:05:54;;;;;;;14.02;7.18;;;;;;;;;;5040306;28;20053;-76
2022/05/16 00:08:39;;;;;;;13.27;5.00;;;;;;;;;;5040087;28;20472;-77
2022/05/16 00:11:25;;;;;;;13.65;6.30;;;;;;;;;;5033210;28;20037;-78
2022/05/16 00:14:10;;;;;;;9.07;5.22;;;;;;;;;;5040519;28;20050;-78
2022/05/16 00:16:56;;;;;;;10.65;4.50;;;;;;;;;;5040052;28;20050;-77
2022/05/16 00:19:42;;;;;;;7.90;3.20;;;;;;;;;;5039736;28;20041;-78
2022/05/16 00:22:28;;;;;;;8.05;3.00;;;;;;;;;;5036812;28;20392;-77
2022/05/16 00:25:17;;;;;;;9.93;2.88;;;;;;;;;;5040752;28;20045;-77
2022/05/16 00:28:03;;;;;;;6.57;2.90;;;;;;;;;;5044039;28;20057;-77
2022/05/16 00:30:48;;;;;;;5.05;3.00;;;;;;;;;;5043821;28;20054;-77
2022/05/16 00:33:34;;;;;;;10.05;3.05;;;;;;;;;;5028353;28;20049;-77
2022/05/16 00:36:19;;;;;;;4.18;2.72;;;;;;;;;;5043604;28;20053;-76
2022/05/16 00:39:05;;;;;;;4.75;2.55;;;;;;;;;;5036520;28;20045;-78
2022/05/16 00:41:51;;;;;;;6.80;2.90;;;;;;;;;;5043488;28;20061;-78
2022/05/16 00:44:38;;;;;;;10.23;2.72;;;;;;;;;;5043520;28;20042;-76
2022/05/16 00:47:23;;;;;;;7.93;3.10;;;;;;;;;;5043170;28;20049;-77
2022/05/16 00:50:11;;;;;;;10.00;3.30;;;;;;;;;;5043321;28;20046;-78
2022/05/16 00:52:56;;;;;;;6.18;3.00;;;;;;;;;;5042777;28;20049;-78
2022/05/16 00:55:42;;;;;;;7.72;3.13;;;;;;;;;;5043576;28;20049;-79
2022/05/16 00:58:28;;;;;;;8.73;3.15;;;;;;;;;;5043091;28;20045;-77
2022/05/16 01:07:29;;;;;;;7.82;3.50;;;;;;;;;;5043145;28;20279;-76
2022/05/16 01:10:19;;;;;;;5.85;2.78;;;;;;;;;;5043643;28;20041;-78
2022/05/16 01:13:04;;;;;;;4.07;2.75;;;;;;;;;;5042907;28;20468;-77
2022/05/16 01:15:50;;;;;;;4.10;2.70;;;;;;;;;;5036289;28;20476;-78
2022/05/16 01:18:37;;;;;;;6.32;2.83;;;;;;;;;;5042989;28;20045;-77
2022/05/16 01:21:31;;;;;;;7.93;3.22;;;;;;;;;;5042158;28;20472;-78
2022/05/16 01:24:18;;;;;;;5.20;2.60;;;;;;;;;;5043121;28;20045;-78
2022/05/16 01:27:03;;;;;;;9.48;2.88;;;;;;;;;;5043079;28;20464;-78
2022/05/16 01:29:49;;;;;;;8.15;3.20;;;;;;;;;;5042979;28;20049;-78
2022/05/16 01:32:35;;;;;;;6.65;3.63;;;;;;;;;;5035735;28;20038;-78
2022/05/16 01:35:27;;;;;;;5.50;3.38;;;;;;;;;;5042178;28;20049;-78
2022/05/16 01:38:18;;;;;;;6.63;3.63;;;;;;;;;;5042525;28;20045;-77
2022/05/16 01:41:13;;;;;;;8.38;3.30;;;;;;;;;;5042748;28;20400;-78
2022/05/16 01:44:00;;;;;;;4.63;3.05;;;;;;;;;;5042736;28;20492;-78
2022/05/16 01:46:46;;;;;;;7.32;3.63;;;;;;;;;;5036058;28;20045;-78
2022/05/16 01:49:31;;;;;;;5.95;3.38;;;;;;;;;;5035495;28;20049;-77
2022/05/16 01:52:16;;;;;;;7.05;3.35;;;;;;;;;;5042331;28;20042;-77
2022/05/16 01:55:03;;;;;;;5.03;2.90;;;;;;;;;;5035269;28;20046;-79
2022/05/16 01:57:49;;;;;;;5.03;3.10;;;;;;;;;;5042167;28;20045;-78
2022/05/16 02:00:36;;;;;;;7.53;3.35;;;;;;;;;;5041933;28;20053;-78
2022/05/16 02:03:21;;;;;;;8.27;3.20;;;;;;;;;;5041764;28;20396;-78
2022/05/16 02:06:08;;;;;;;6.65;3.20;;;;;;;;;;5042266;28;20480;-78
2022/05/16 02:08:54;;;;;;;3.97;2.90;;;;;;;;;;5042041;28;20045;-77
2022/05/16 02:11:40;;;;;;;6.15;3.30;;;;;;;;;;5041757;28;20217;-78
2022/05/16 02:14:26;;;;;;;5.85;3.05;;;;;;;;;;5042213;28;20480;-79
2022/05/16 02:17:12;;;;;;;6.63;3.38;;;;;;;;;;5034686;28;20045;-77
2022/05/16 02:19:57;;;;;;;7.00;3.17;;;;;;;;;;5042032;28;20050;-77
2022/05/16 02:25:47;;;;;;;10.05;3.50;;;;;;;;;;5044859;28;20045;-78
2022/05/16 02:28:32;;;;;;;6.90;3.40;;;;;;;;;;5041483;28;20041;-78
2022/05/16 02:31:20;;;;;;;7.90;3.10;;;;;;;;;;5034958;28;20045;-78
2022/05/16 02:34:05;;;;;;;5.90;3.67;;;;;;;;;;5041524;28;20037;-77
2022/05/16 02:36:52;;;;;;;4.97;3.08;;;;;;;;;;5041430;28;20468;-78
2022/05/16 02:39:38;;;;;;;7.43;3.38;;;;;;;;;;5041256;28;20049;-77
2022/05/16 02:42:23;;;;;;;5.07;3.05;;;;;;;;;;5041285;28;20053;-78
2022/05/16 02:45:09;;;;;;;4.50;3.08;;;;;;;;;;5041111;28;20049;-78
2022/05/16 02:47:55;;;;;;;5.55;3.10;;;;;;;;;;5040664;28;20054;-76
2022/05/16 02:50:41;;;;;;;5.50;3.10;;;;;;;;;;5041316;28;20057;-77
2022/05/16 02:53:26;;;;;;;9.05;3.50;;;;;;;;;;5040585;28;20049;-77
2022/05/16 02:56:11;;;;;;;3.75;2.90;;;;;;;;;;5040806;28;20473;-78
2022/05/16 02:58:56;;;;;;;6.28;2.97;;;;;;;;;;5040698;28;20053;-78
2022/05/16 03:01:42;;;;;;;7.22;3.17;;;;;;;;;;5041184;28;20042;-78
2022/05/16 03:04:28;;;;;;;6.95;3.28;;;;;;;;;;5040933;28;20053;-78
2022/05/16 03:07:14;;;;;;;9.65;3.00;;;;;;;;;;5040515;28;20041;-78
2022/05/16 03:10:00;;;;;;;4.60;3.38;;;;;;;;;;5040906;28;20049;-78
2022/05/16 03:12:46;;;;;;;8.65;3.35;;;;;;;;;;5040258;28;20050;-77
2022/05/16 03:15:31;;;;;;;6.53;3.60;;;;;;;;;;5041026;28;20057;-78
2022/05/16 03:18:17;;;;;;;8.15;3.53;;;;;;;;;;5040963;28;20050;-78
2022/05/16 03:21:03;;;;;;;4.70;3.30;;;;;;;;;;5040438;28;20053;-78
2022/05/16 03:23:48;;;;;;;7.05;3.22;;;;;;;;;;5040691;28;20053;-76
2022/05/16 03:26:34;;;;;;;5.18;3.38;;;;;;;;;;5040541;28;20049;-78
2022/05/16 03:29:19;;;;;;;5.70;3.35;;;;;;;;;;5040559;28;20050;-78
2022/05/16 03:32:06;;;;;;;5.70;3.20;;;;;;;;;;5040468;28;20057;-78
2022/05/16 03:34:54;;;;;;;7.50;3.40;;;;;;;;;;5040207;28;20045;-77
2022/05/16 03:37:40;;;;;;;7.68;3.40;;;;;;;;;;5040492;28;20053;-77
2022/05/16 03:40:45;;;;;;;5.03;3.20;;;;;;;;;;5039852;28;20041;-78
2022/05/16 03:43:30;;;;;;;10.18;3.25;;;;;;;;;;5040420;28;20053;-77
2022/05/16 03:46:14;;;;;;;3.85;3.05;;;;;;;;;;5040343;28;20045;-78
2022/05/16 03:49:01;;;;;;;5.63;3.47;;;;;;;;;;5039869;28;20054;-78
2022/05/16 03:51:46;;;;;;;6.93;3.10;;;;;;;;;;5040299;28;20480;-77
2022/05/16 03:54:31;;;;;;;7.57;3.90;;;;;;;;;;5040170;28;20396;-77
2022/05/16 03:57:16;;;;;;;5.00;3.38;;;;;;;;;;5040266;28;20041;-77
2022/05/16 04:00:01;;;;;;;9.77;3.50;;;;;;;;;;5054659;28;20049;-77
2022/05/16 04:02:57;;;;;;;12.63;3.10;;;;;;;;;;5043496;28;20053;-77
2022/05/16 04:05:42;;;;;;;8.35;3.42;;;;;;;;;;5064246;28;20053;-77
2022/05/16 04:08:28;;;;;;;7.43;3.67;;;;;;;;;;5024105;28;20054;-76
2022/05/16 04:11:16;;;;;;;5.78;3.50;;;;;;;;;;5024318;28;20480;-79
2022/05/16 04:14:01;;;;;;;6.25;3.60;;;;;;;;;;5024037;28;20050;-77
2022/05/16 04:16:47;;;;;;;8.57;3.22;;;;;;;;;;5023978;28;20046;-78
2022/05/16 04:19:31;;;;;;;8.77;3.40;;;;;;;;;;5023927;28;20054;-77
2022/05/16 04:22:18;;;;;;;7.32;3.90;;;;;;;;;;5021132;28;20054;-78
2022/05/16 04:25:05;;;;;;;10.40;3.97;;;;;;;;;;5024128;28;20058;-77
2022/05/16 04:27:50;;;;;;;11.57;3.75;;;;;;;;;;5024243;28;20045;-76
2022/05/16 04:30:37;;;;;;;11.15;4.00;;;;;;;;;;5054942;28;20399;-77
2022/05/16 04:33:22;;;;;;;7.30;4.10;;;;;;;;;;5028706;28;20045;-76
2022/05/16 04:36:08;;;;;;;10.98;3.63;;;;;;;;;;5056856;28;20472;-78
2022/05/16 04:38:53;;;;;;;7.63;3.42;;;;;;;;;;5063393;28;20045;-79
2022/05/16 04:44:52;;;;;;;14.63;3.90;;;;;;;;;;4996506;28;20053;-78
2022/05/16 04:47:39;;;;;;;12.60;4.18;;;;;;;;;;5062648;28;20044;-78
2022/05/16 04:50:34;;;;;;;13.32;3.92;;;;;;;;;;5043310;28;20041;-78
2022/05/16 04:53:19;;;;;;;9.95;4.88;;;;;;;;;;5042985;28;20412;-78
2022/05/16 04:56:05;;;;;;;16.95;5.18;;;;;;;;;;5036731;28;20037;-79
2022/05/16 04:58:51;;;;;;;10.85;3.65;;;;;;;;;;5045270;28;20052;-78
2022/05/16 05:01:36;;;;;;;15.98;4.40;;;;;;;;;;5051482;28;20045;-79
2022/05/16 05:04:22;;;;;;;10.63;3.70;;;;;;;;;;5042902;28;20057;-77
2022/05/16 05:07:07;;;;;;;9.10;3.28;;;;;;;;;;5043393;28;20049;-80
2022/05/16 05:16:10;;;;;;;11.85;3.50;;;;;;;;;;5035149;28;20037;-77
2022/05/16 05:18:56;;;;;;;7.10;3.40;;;;;;;;;;5042377;28;20041;-78
2022/05/16 05:21:41;;;;;;;10.73;3.25;;;;;;;;;;5036310;28;20045;-78
2022/05/16 05:24:27;;;;;;;6.63;2.70;;;;;;;;;;5036166;28;20492;-78
2022/05/16 05:27:12;;;;;;;10.95;4.78;;;;;;;;;;5042225;28;20049;-79
2022/05/16 05:29:58;;;;;;;9.60;4.07;;;;;;;;;;5042901;28;20424;-79
2022/05/16 05:32:43;;;;;;;11.45;3.97;;;;;;;;;;5041910;28;20049;-78
2022/05/16 05:35:29;;;;;;;11.90;4.00;;;;;;;;;;5042583;28;20049;-77
2022/05/16 05:38:14;;;;;;;18.10;3.85;;;;;;;;;;5042506;28;20388;-77
2022/05/16 05:41:00;;;;;;;6.57;2.85;;;;;;;;;;5041860;28;20485;-77
2022/05/16 05:43:45;;;;;;;11.10;3.30;;;;;;;;;;5042748;28;20049;-78
2022/05/16 05:46:38;;;;;;;6.50;3.35;;;;;;;;;;5041793;28;20049;-78
2022/05/16 05:49:24;;;;;;;14.30;3.20;;;;;;;;;;5042500;28;20046;-79
2022/05/16 05:52:09;;;;;;;9.40;3.10;;;;;;;;;;5042526;28;20050;-80
2022/05/16 05:54:56;;;;;;;7.03;3.13;;;;;;;;;;5041765;28;20041;-80
2022/05/16 05:57:42;;;;;;;6.25;2.95;;;;;;;;;;5035195;28;20049;-80
2022/05/16 06:00:27;;;;;;;6.13;3.15;;;;;;;;;;5041924;28;20467;-78
2022/05/16 06:03:13;;;;;;;8.98;3.15;;;;;;;;;;5042040;28;20054;-77
2022/05/16 06:05:59;;;;;;;9.50;3.17;;;;;;;;;;5035583;28;20045;-78
2022/05/16 06:08:44;;;;;;;6.50;2.67;;;;;;;;;;5041720;28;20045;-78
2022/05/16 06:11:30;;;;;;;7.80;3.08;;;;;;;;;;5041911;28;20049;-77
2022/05/16 06:14:16;;;;;;;7.85;2.80;;;;;;;;;;5042308;28;20049;-78
2022/05/16 06:17:02;;;;;;;10.75;3.50;;;;;;;;;;5021726;28;20419;-77
2022/05/16 06:19:47;;;;;;;12.05;3.40;;;;;;;;;;5026888;28;20041;-80
2022/05/16 06:22:37;;;;;;;7.85;2.53;;;;;;;;;;5040607;28;20042;-78
2022/05/16 06:25:33;;;;;;;9.00;3.38;;;;;;;;;;5043377;28;20053;-78
2022/05/16 06:28:24;;;;;;;11.23;2.88;;;;;;;;;;5034407;28;20049;-78
2022/05/16 06:31:09;;;;;;;8.35;3.00;;;;;;;;;;5035150;28;20049;-79
2022/05/16 06:33:54;;;;;;;8.38;2.70;;;;;;;;;;5041181;28;20046;-77
2022/05/16 06:36:40;;;;;;;14.68;3.00;;;;;;;;;;5041119;28;20053;-79
2022/05/16 06:39:25;;;;;;;4.95;2.63;;;;;;;;;;5034698;28;20394;-78
2022/05/16 06:42:12;;;;;;;9.25;2.97;;;;;;;;;;5041207;28;20045;-78
2022/05/16 06:44:57;;;;;;;6.93;2.92;;;;;;;;;;5026281;28;20045;-79
2022/05/16 06:47:42;;;;;;;5.70;2.75;;;;;;;;;;5041220;28;20045;-78
2022/05/16 06:50:28;;;;;;;14.57;3.25;;;;;;;;;;5040736;28;20045;-78
2022/05/16 06:53:20;;;;;;;6.88;2.85;;;;;;;;;;5041134;28;20045;-78
2022/05/16 06:56:06;;;;;;;13.00;3.42;;;;;;;;;;5040932;28;20396;-79
2022/05/16 06:58:51;;;;;;;14.35;5.07;;;;;;;;;;5040961;28;20480;-79
2022/05/16 07:01:37;;;;;;;11.68;4.80;;;;;;;;;;5040896;28;20041;-78
2022/05/16 07:04:23;;;;;;;9.77;4.30;;;;;;;;;;5040389;28;20046;-79
2022/05/16 07:07:08;;;;;;;9.40;2.97;;;;;;;;;;5039513;28;20480;-80
2022/05/16 07:09:54;;;;;;;11.98;2.75;;;;;;;;;;5040754;28;20045;-79
2022/05/16 07:12:40;;;;;;;6.88;2.78;;;;;;;;;;5041538;28;20404;-77
2022/05/16 07:15:25;;;;;;;7.57;2.72;;;;;;;;;;5026076;28;20484;-79
2022/05/16 07:18:11;;;;;;;7.55;2.75;;;;;;;;;;5026108;28;20045;-78
2022/05/16 07:20:58;;;;;;;11.63;2.50;;;;;;;;;;5041292;28;20061;-77
2022/05/16 07:23:43;;;;;;;6.93;2.63;;;;;;;;;;5040590;28;20511;-78
2022/05/16 07:29:32;;;;;;;5.65;2.60;;;;;;;;;;5041133;28;20045;-78
2022/05/16 07:32:18;;;;;;;4.60;2.50;;;;;;;;;;5025331;28;20045;-79
2022/05/16 07:35:04;;;;;;;9.80;3.35;;;;;;;;;;5040512;28;20404;-78
2022/05/16 07:37:49;;;;;;;5.00;2.60;;;;;;;;;;5039673;28;20476;-79
2022/05/16 07:40:37;;;;;;;6.47;2.63;;;;;;;;;;5040211;28;20041;-77
2022/05/16 07:43:24;;;;;;;8.95;2.70;;;;;;;;;;5039673;28;20388;-78
2022/05/16 07:46:10;;;;;;;8.30;2.60;;;;;;;;;;5039630;28;20046;-78
2022/05/16 07:48:55;;;;;;;7.90;3.00;;;;;;;;;;5039921;28;20046;-76
2022/05/16 07:51:40;;;;;;;4.95;2.20;;;;;;;;;;5040006;28;20049;-77
2022/05/16 07:54:26;;;;;;;5.63;2.33;;;;;;;;;;5039513;28;20045;-77
2022/05/16 07:57:12;;;;;;;7.53;2.65;;;;;;;;;;5039961;28;20416;-77
2022/05/16 07:59:57;;;;;;;6.65;2.60;;;;;;;;;;5039881;28;20041;-77
2022/05/16 08:02:43;;;;;;;10.30;2.60;;;;;;;;;;5040279;28;20053;-79
2022/05/16 08:05:28;;;;;;;5.38;2.33;;;;;;;;;;5040055;28;20045;-78
2022/05/16 08:11:18;;;;;;;16.63;2.85;;;;;;;;;;5040482;28;20045;-79
2022/05/16 08:14:03;;;;;;;7.13;2.65;;;;;;;;;;5039376;28;20049;-79
2022/05/16 08:16:49;;;;;;;10.30;2.63;;;;;;;;;;5033780;28;20049;-78
2022/05/16 08:19:35;;;;;;;9.35;2.45;;;;;;;;;;5040001;28;20041;-78
2022/05/16 08:22:20;;;;;;;9.90;2.70;;;;;;;;;;5036500;28;20053;-78
2022/05/16 08:25:06;;;;;;;7.22;3.05;;;;;;;;;;5039700;28;20408;-80
2022/05/16 08:27:51;;;;;;;6.05;2.42;;;;;;;;;;5039536;28;20050;-79
2022/05/16 08:30:37;;;;;;;6.97;2.60;;;;;;;;;;5040064;28;20045;-80
2022/05/16 08:33:22;;;;;;;5.82;2.08;;;;;;;;;;5040129;28;20049;-79
2022/05/16 08:42:22;;;;;;;10.52;2.45;;;;;;;;;;5039209;28;20042;-78
2022/05/16 08:45:14;;;;;;;6.32;2.58;;;;;;;;;;5040026;28;20049;-77
2022/05/16 08:48:17;;;;;;;5.68;2.30;;;;;;;;;;5043349;28;20049;-77
2022/05/16 08:51:13;;;;;;;9.27;2.50;;;;;;;;;;5043658;28;20049;-79
2022/05/16 08:54:04;;;;;;;4.78;2.22;;;;;;;;;;5043395;28;20041;-79
2022/05/16 08:56:51;;;;;;;8.38;2.00;;;;;;;;;;5042978;28;20045;-80
2022/05/16 08:59:41;;;;;;;7.05;2.38;;;;;;;;;;5043559;28;20468;-80
2022/05/16 09:02:30;;;;;;;3.25;1.77;;;;;;;;;;5042965;28;20050;-78
2022/05/16 09:05:22;;;;;;;4.32;1.83;;;;;;;;;;5043429;28;20049;-80
2022/05/16 09:08:13;;;;;;;6.68;2.10;;;;;;;;;;5043677;28;20049;-80
2022/05/16 09:11:18;;;;;;;8.48;1.85;;;;;;;;;;5042472;28;20050;-80
2022/05/16 09:14:07;;;;;;;8.32;1.90;;;;;;;;;;5042741;28;20476;-79
2022/05/16 09:17:00;;;;;;;4.53;2.20;;;;;;;;;;5042307;28;20042;-79
2022/05/16 09:20:04;;;;;;;7.80;2.28;;;;;;;;;;5028035;28;20049;-79
2022/05/16 09:23:05;;;;;;;6.70;1.90;;;;;;;;;;5036557;28;20050;-79
2022/05/16 09:26:15;;;;;;;6.95;2.58;;;;;;;;;;5042846;28;20500;-79
2022/05/16 09:29:08;;;;;;;21.95;3.35;;;;;;;;;;5043308;28;20049;-79
2022/05/16 09:31:59;;;;;;;4.50;2.45;;;;;;;;;;5042049;28;20480;-80
2022/05/16 09:34:44;;;;;;;5.55;2.10;;;;;;;;;;5042421;28;20037;-80
2022/05/16 09:37:30;;;;;;;10.18;2.25;;;;;;;;;;5042060;28;20053;-80
2022/05/16 09:40:15;;;;;;;8.10;2.15;;;;;;;;;;5042413;28;20050;-78
2022/05/16 09:43:08;;;;;;;5.00;1.85;;;;;;;;;;5042162;28;20041;-78
2022/05/16 09:46:01;;;;;;;6.93;2.00;;;;;;;;;;5035431;28;20037;-77
2022/05/16 09:48:46;;;;;;;7.05;2.08;;;;;;;;;;5042331;28;20266;-79
2022/05/16 09:51:39;;;;;;;10.73;2.28;;;;;;;;;;5041896;28;20053;-78
2022/05/16 09:54:32;;;;;;;26.63;3.60;;;;;;;;;;5042064;28;20480;-79
2022/05/16 09:57:20;;;;;;;9.05;2.33;;;;;;;;;;5042379;28;20053;-79
2022/05/16 10:00:24;;;;;;;9.18;2.35;;;;;;;;;;5041450;28;20053;-78
2022/05/16 10:03:23;;;;;;;20.33;2.75;;;;;;;;;;5042000;28;20046;-79
2022/05/16 10:06:26;;;;;;;4.93;1.83;;;;;;;;;;5041703;28;20500;-79
2022/05/16 10:09:15;;;;;;;5.57;1.77;;;;;;;;;;5027213;28;20396;-79
2022/05/16 10:12:00;;;;;;;7.05;2.22;;;;;;;;;;5042230;28;20053;-79
2022/05/16 10:14:46;;;;;;;3.30;1.60;;;;;;;;;;5045166;28;20042;-79
2022/05/16 10:17:35;;;;;;;4.50;1.85;;;;;;;;;;5042256;28;20049;-77
2022/05/16 10:20:24;;;;;;;7.22;1.50;;;;;;;;;;5034939;28;20400;-79
2022/05/16 10:23:23;;;;;;;6.03;1.75;;;;;;;;;;5034696;28;20049;-78
2022/05/16 10:26:15;;;;;;;6.65;1.63;;;;;;;;;;5041665;28;20045;-79
2022/05/16 10:29:07;;;;;;;7.47;1.77;;;;;;;;;;5041294;28;20049;-78
2022/05/16 10:35:11;;;;;;;7.30;1.77;;;;;;;;;;5040892;28;20045;-79
2022/05/16 10:38:21;;;;;;;6.85;1.35;;;;;;;;;;5034813;28;20416;-81
2022/05/16 10:41:14;;;;;;;5.45;1.45;;;;;;;;;;5007378;28;20489;-78
2022/05/16 10:44:38;;;;;;;4.82;1.67;;;;;;;;;;5040883;28;20508;-81
2022/05/16 10:48:01;;;;;;;2.45;1.60;;;;;;;;;;5040918;28;20041;-78
2022/05/16 10:50:52;;;;;;;3.75;1.45;;;;;;;;;;5040754;28;20045;-79
2022/05/16 10:53:50;;;;;;;24.33;2.13;;;;;;;;;;5041081;28;20049;-78
2022/05/16 10:57:08;;;;;;;8.30;2.40;;;;;;;;;;5035240;28;20052;-78
2022/05/16 11:00:00;;;;;;;7.82;1.70;;;;;;;;;;5034023;28;20439;-79
2022/05/16 11:03:01;;;;;;;13.48;2.13;;;;;;;;;;5040843;28;20480;-79
2022/05/16 11:06:05;;;;;;;4.40;1.55;;;;;;;;;;5040287;28;20041;-79
2022/05/16 11:09:03;;;;;;;32.70;3.47;;;;;;;;;;5040076;28;20041;-79
2022/05/16 11:12:17;;;;;;;11.20;1.80;;;;;;;;;;5040393;28;20404;-81
2022/05/16 11:15:19;;;;;;;20.60;2.20;;;;;;;;;;5040404;28;20057;-79
2022/05/16 11:18:16;;;;;;;7.07;1.48;;;;;;;;;;5039068;28;20053;-79
2022/05/16 11:21:32;;;;;;;5.43;1.48;;;;;;;;;;5040163;28;20049;-78
2022/05/16 11:24:31;;;;;;;3.50;1.50;;;;;;;;;;5040317;28;20400;-77
2022/05/16 11:27:32;;;;;;;17.27;2.08;;;;;;;;;;5039907;28;20042;-80
2022/05/16 11:30:29;;;;;;;5.38;1.88;;;;;;;;;;5040512;28;20053;-79
2022/05/16 11:33:23;;;;;;;6.80;2.13;;;;;;;;;;5025577;28;20045;-79
2022/05/16 11:36:36;;;;;;;8.30;1.73;;;;;;;;;;5040839;28;20057;-79
2022/05/16 11:39:49;;;;;;;4.85;1.77;;;;;;;;;;5040228;28;20049;-77
2022/05/16 11:42:49;;;;;;;6.80;1.50;;;;;;;;;;5040641;28;20053;-79
2022/05/16 11:45:52;;;;;;;5.28;1.90;;;;;;;;;;5040351;28;20057;-79
2022/05/16 11:49:00;;;;;;;7.40;1.58;;;;;;;;;;5033273;28;20046;-78
2022/05/16 11:52:04;;;;;;;9.32;1.80;;;;;;;;;;5040210;28;20049;-79
2022/05/16 12:00:31;;;;;;;5.50;1.77;;;;;;;;;;5039853;28;20045;-79
2022/05/16 12:01:38;;;;;;;2.67;1.55;;;;;;;;;;5039760;28;20050;-78
2022/05/16 12:04:24;;;;;;;2.85;1.63;;;;;;;;;;5040023;28;20507;-77
2022/05/16 12:07:17;;;;;;;5.38;1.77;;;;;;;;;;5040070;28;20053;-78
2022/05/16 12:10:15;;;;;;;5.68;1.70;;;;;;;;;;5039754;28;20049;-78
2022/05/16 12:13:33;;;;;;;4.07;1.80;;;;;;;;;;5040322;28;20469;-78
2022/05/16 12:16:19;;;;;;;4.57;1.67;;;;;;;;;;5039818;28;20049;-77
2022/05/16 12:19:29;;;;;;;5.38;1.70;;;;;;;;;;5040397;28;20045;-78
2022/05/16 12:22:34;;;;;;;2.90;1.52;;;;;;;;;;5039615;28;20049;-78
2022/05/16 12:25:26;;;;;;;9.45;2.00;;;;;;;;;;5043909;28;20056;-78
2022/05/16 12:28:12;;;;;;;5.70;1.52;;;;;;;;;;5044095;28;20049;-77
2022/05/16 12:30:59;;;;;;;2.88;1.42;;;;;;;;;;5036634;28;20045;-78
2022/05/16 12:33:44;;;;;;;7.05;1.80;;;;;;;;;;5043275;28;20476;-77
2022/05/16 12:36:29;;;;;;;3.63;1.55;;;;;;;;;;5043445;28;20041;-77
2022/05/16 12:39:31;;;;;;;3.13;1.52;;;;;;;;;;5043678;28;20423;-79
2022/05/16 12:42:23;;;;;;;9.45;1.80;;;;;;;;;;5043663;28;20459;-79
2022/05/16 12:45:32;;;;;;;5.55;1.65;;;;;;;;;;5043488;28;20053;-78
2022/05/16 12:48:42;;;;;;;5.38;1.73;;;;;;;;;;5043817;28;20053;-78
2022/05/16 12:51:42;;;;;;;4.75;1.30;;;;;;;;;;5043257;28;20050;-78
2022/05/16 12:55:05;;;;;;;7.15;1.63;;;;;;;;;;5044518;28;20045;-77
2022/05/16 12:58:20;;;;;;;5.57;1.60;;;;;;;;;;5018404;28;20049;-79
2022/05/16 13:01:13;;;;;;;6.47;1.33;;;;;;;;;;5037036;28;20050;-78
2022/05/16 13:04:20;;;;;;;3.75;1.70;;;;;;;;;;5042820;28;20053;-77
2022/05/16 13:07:13;;;;;;;4.22;1.60;;;;;;;;;;5043487;28;20388;-78
2022/05/16 13:10:29;;;;;;;3.65;1.52;;;;;;;;;;5042878;28;20050;-78
2022/05/16 13:13:26;;;;;;;11.85;1.80;;;;;;;;;;5042956;28;20476;-77
2022/05/16 13:16:24;;;;;;;6.50;1.95;;;;;;;;;;5042996;28;20042;-78
2022/05/16 13:19:15;;;;;;;6.03;1.95;;;;;;;;;;5042623;28;20053;-78
2022/05/16 13:22:01;;;;;;;4.80;1.50;;;;;;;;;;5040779;28;20054;-79
2022/05/16 13:24:51;;;;;;;4.97;1.58;;;;;;;;;;5042606;28;20057;-77
2022/05/16 13:30:41;;;;;;;4.35;1.75;;;;;;;;;;5042773;28;20468;-77
2022/05/16 13:33:31;;;;;;;5.18;1.75;;;;;;;;;;5041964;28;20049;-76
2022/05/16 13:36:19;;;;;;;7.82;1.77;;;;;;;;;;5042721;28;20045;-77
2022/05/16 13:39:11;;;;;;;5.45;2.30;;;;;;;;;;5042169;28;20057;-77
2022/05/16 13:41:59;;;;;;;3.45;1.52;;;;;;;;;;5042426;28;20400;-77
2022/05/16 13:44:45;;;;;;;10.90;1.60;;;;;;;;;;5042501;28;20049;-77
2022/05/16 13:47:32;;;;;;;7.63;1.50;;;;;;;;;;5042012;28;20472;-77
2022/05/16 13:50:25;;;;;;;4.50;1.85;;;;;;;;;;5041826;28;20049;-77
2022/05/16 13:53:17;;;;;;;5.75;1.98;;;;;;;;;;5035481;28;20054;-78
2022/05/16 13:56:03;;;;;;;7.10;1.40;;;;;;;;;;5042182;28;20456;-78
2022/05/16 13:58:48;;;;;;;3.05;1.70;;;;;;;;;;5042247;28;20067;-78
2022/05/16 14:01:34;;;;;;;8.63;1.73;;;;;;;;;;5041747;28;20065;-76
2022/05/16 14:04:25;;;;;;;5.63;1.50;;;;;;;;;;5042187;28;20053;-77
2022/05/16 14:07:19;;;;;;;5.80;1.67;;;;;;;;;;5041765;28;20049;-76
2022/05/16 14:10:08;;;;;;;4.77;1.80;;;;;;;;;;5042112;28;20045;-76
2022/05/16 14:12:58;;;;;;;5.45;1.58;;;;;;;;;;5041728;28;20049;-77
2022/05/16 14:15:52;;;;;;;7.28;2.05;;;;;;;;;;5034362;28;20042;-77
2022/05/16 14:18:48;;;;;;;7.35;2.15;;;;;;;;;;5041623;28;20049;-79
2022/05/16 14:21:51;;;;;;;7.20;1.90;;;;;;;;;;5040448;28;20053;-78
2022/05/16 14:24:39;;;;;;;5.15;1.80;;;;;;;;;;5041831;28;20045;-78
2022/05/16 14:27:37;;;;;;;4.78;1.90;;;;;;;;;;5041856;28;20049;-78
2022/05/16 14:30:26;;;;;;;5.60;1.92;;;;;;;;;;5041595;28;20046;-78
2022/05/16 14:33:14;;;;;;;7.03;1.80;;;;;;;;;;5041314;28;20054;-76
2022/05/16 14:36:04;;;;;;;5.72;1.75;;;;;;;;;;5040983;28;20053;-79
2022/05/16 14:38:52;;;;;;;5.32;1.83;;;;;;;;;;5034761;28;20480;-78
2022/05/16 14:41:49;;;;;;;4.03;1.85;;;;;;;;;;5041382;28;20404;-78
2022/05/16 14:44:42;;;;;;;3.50;1.80;;;;;;;;;;5040630;28;20045;-77
2022/05/16 14:47:46;;;;;;;5.78;2.22;;;;;;;;;;5041007;28;20411;-77
2022/05/16 14:50:32;;;;;;;10.05;2.15;;;;;;;;;;5041430;28;20049;-79
2022/05/16 14:53:18;;;;;;;8.63;2.17;;;;;;;;;;5059016;28;20395;-80
2022/05/16 14:56:04;;;;;;;6.32;1.90;;;;;;;;;;5060385;28;20487;-79
2022/05/16 14:58:50;;;;;;;11.07;1.98;;;;;;;;;;5060790;28;20045;-76
2022/05/16 15:04:38;;;;;;;5.90;1.90;;;;;;;;;;5059925;28;20472;-77
2022/05/16 15:07:25;;;;;;;4.72;2.20;;;;;;;;;;5060732;28;20052;-77
2022/05/16 15:10:12;;;;;;;5.43;1.70;;;;;;;;;;5060319;28;20048;-77
2022/05/16 15:12:57;;;;;;;10.43;2.05;;;;;;;;;;5061061;28;20056;-77
2022/05/16 15:15:43;;;;;;;6.55;2.30;;;;;;;;;;5053964;28;20388;-78
2022/05/16 15:18:30;;;;;;;6.75;1.90;;;;;;;;;;5059521;28;20477;-77
2022/05/16 15:21:17;;;;;;;3.42;1.90;;;;;;;;;;5059912;28;20041;-77
2022/05/16 15:24:09;;;;;;;4.22;1.90;;;;;;;;;;5059467;28;20487;-77
2022/05/16 15:26:54;;;;;;;4.30;1.90;;;;;;;;;;5059927;28;20045;-78
2022/05/16 15:29:40;;;;;;;4.97;1.63;;;;;;;;;;5059887;28;20041;-78
2022/05/16 15:32:25;;;;;;;4.55;2.00;;;;;;;;;;5060336;28;20037;-77
2022/05/16 15:35:11;;;;;;;9.55;2.30;;;;;;;;;;5060715;28;20403;-78
2022/05/16 15:37:56;;;;;;;5.22;2.08;;;;;;;;;;5060900;28;20053;-78
2022/05/16 15:40:43;;;;;;;4.30;1.90;;;;;;;;;;5060340;28;20041;-78
2022/05/16 15:43:28;;;;;;;5.00;1.83;;;;;;;;;;5060341;28;20399;-78
2022/05/16 15:46:13;;;;;;;6.93;2.15;;;;;;;;;;5059834;28;20052;-77
2022/05/16 15:48:59;;;;;;;7.45;2.30;;;;;;;;;;5060197;28;20048;-78
2022/05/16 15:51:45;;;;;;;8.32;2.00;;;;;;;;;;5058930;28;20399;-78
2022/05/16 15:54:33;;;;;;;4.13;2.13;;;;;;;;;;5060035;28;20044;-77
2022/05/16 15:57:18;;;;;;;4.13;1.80;;;;;;;;;;5066720;28;20049;-77
2022/05/16 16:00:05;;;;;;;4.68;1.70;;;;;;;;;;5059730;28;20041;-76
2022/05/16 16:02:53;;;;;;;10.80;2.47;;;;;;;;;;5066618;28;20041;-77
2022/05/16 16:08:44;;;;;;;4.93;2.17;;;;;;;;;;5066236;28;20463;-77
2022/05/16 16:11:29;;;;;;;9.88;2.17;;;;;;;;;;5066949;28;20040;-78
2022/05/16 16:14:16;;;;;;;3.75;1.90;;;;;;;;;;5066246;28;20057;-77
2022/05/16 16:17:02;;;;;;;6.65;2.15;;;;;;;;;;5066744;28;20053;-78
2022/05/16 16:19:49;;;;;;;6.90;1.70;;;;;;;;;;5066471;28;20045;-77
2022/05/16 16:22:38;;;;;;;8.77;2.15;;;;;;;;;;5061667;28;20057;-77
2022/05/16 16:25:25;;;;;;;9.40;2.30;;;;;;;;;;5066381;28;20053;-78
2022/05/16 16:28:12;;;;;;;8.00;2.17;;;;;;;;;;5066174;28;20053;-78
2022/05/16 16:30:57;;;;;;;6.35;1.88;;;;;;;;;;5066793;28;20482;-78
2022/05/16 16:33:42;;;;;;;10.00;2.10;;;;;;;;;;5066649;28;20048;-79
2022/05/16 16:36:28;;;;;;;4.22;1.60;;;;;;;;;;5066378;28;20045;-78
2022/05/16 16:39:14;;;;;;;4.85;2.00;;;;;;;;;;5066667;28;20396;-77
2022/05/16 16:42:00;;;;;;;5.80;1.90;;;;;;;;;;5058066;28;20088;-75
2022/05/16 16:44:46;;;;;;;6.30;1.98;;;;;;;;;;5043748;28;20472;-77
2022/05/16 16:47:31;;;;;;;5.22;2.05;;;;;;;;;;5044037;28;20415;-76
2022/05/16 16:50:17;;;;;;;5.53;1.90;;;;;;;;;;5042114;28;20049;-77
2022/05/16 16:59:13;;;;;;;3.30;1.70;;;;;;;;;;5044367;28;20404;-78
2022/05/16 17:02:01;;;;;;;8.90;2.00;;;;;;;;;;5035432;28;20045;-79
2022/05/16 17:04:49;;;;;;;8.73;2.05;;;;;;;;;;5043680;28;20041;-75
2022/05/16 17:07:35;;;;;;;5.03;2.40;;;;;;;;;;5041597;28;20241;-77
2022/05/16 17:10:26;;;;;;;20.95;2.78;;;;;;;;;;5040168;28;20037;-78
2022/05/16 17:13:14;;;;;;;10.30;2.13;;;;;;;;;;5043060;28;20046;-80
2022/05/16 17:16:02;;;;;;;10.35;2.97;;;;;;;;;;5042393;28;20444;-79
2022/05/16 17:18:48;;;;;;;9.20;3.08;;;;;;;;;;5036229;28;20038;-80
2022/05/16 17:21:36;;;;;;;8.63;3.08;;;;;;;;;;5035998;28;20046;-79
2022/05/16 17:24:22;;;;;;;10.05;3.13;;;;;;;;;;5042352;28;20045;-79
2022/05/16 17:27:07;;;;;;;9.70;3.30;;;;;;;;;;5042622;28;20041;-80
2022/05/16 17:29:53;;;;;;;5.78;2.92;;;;;;;;;;5042920;28;20480;-79
2022/05/16 17:32:40;;;;;;;12.10;3.33;;;;;;;;;;5042250;28;20045;-82
2022/05/16 17:35:25;;;;;;;7.68;3.53;;;;;;;;;;5042253;28;20057;-83
2022/05/16 17:38:11;;;;;;;8.32;3.35;;;;;;;;;;5042370;28;20045;-81
2022/05/16 17:40:56;;;;;;;7.30;3.42;;;;;;;;;;5035519;28;20037;-80
2022/05/16 17:43:42;;;;;;;10.77;3.88;;;;;;;;;;5035878;28;20105;-81
2022/05/16 17:46:27;;;;;;;10.38;3.50;;;;;;;;;;5042022;28;20045;-82